createdAt,value
2018-09-04T00:50:58.547Z,13.33
2018-09-04T00:56:07.822Z,13.10
2018-09-04T02:33:13.568Z,16.93
2018-09-04T02:38:16.847Z,19.53
2018-09-04T02:43:20.193Z,15.23
2018-09-04T03:45:58.310Z,22.00
2018-09-04T03:51:01.651Z,23.97
2018-09-04T03:56:10.763Z,22.40
2018-09-04T04:35:46.395Z,22.83
2018-09-04T04:40:49.743Z,24.07
2018-09-04T04:45:59.631Z,24.00
2018-09-04T04:51:02.976Z,27.03
2018-09-04T04:56:18.341Z,25.07
2018-09-04T05:01:21.678Z,24.60
2018-09-04T05:06:28.165Z,24.07
2018-09-04T05:11:31.553Z,22.93
2018-09-04T05:16:49.875Z,22.87
2018-09-04T05:21:53.994Z,19.03
2018-09-04T05:26:57.337Z,21.90
2018-09-04T05:32:00.679Z,23.70
2018-09-04T05:37:04.010Z,24.33
2018-09-04T05:42:07.345Z,24.13
2018-09-04T05:47:10.674Z,25.40
2018-09-04T05:52:14.772Z,21.50
2018-09-04T05:57:18.111Z,23.57
2018-09-04T06:02:22.269Z,24.50
2018-09-04T06:07:25.575Z,23.53
2018-09-04T06:12:29.684Z,23.60
2018-09-04T06:17:33.023Z,24.07
2018-09-04T06:22:36.350Z,24.77
2018-09-04T06:27:39.691Z,22.20
2018-09-04T07:01:29.368Z,24.83
2018-09-04T07:06:32.711Z,25.50
2018-09-04T07:11:36.052Z,24.73
2018-09-04T08:02:41.696Z,22.90
2018-09-04T08:07:45.042Z,23.23
2018-09-04T08:12:49.142Z,26.00
2018-09-04T09:03:56.174Z,24.77
2018-09-04T09:08:59.519Z,23.13
2018-09-04T09:14:02.861Z,23.20
2018-09-04T10:05:07.819Z,13.07
2018-09-04T10:10:11.176Z,13.93
2018-09-04T11:01:10.247Z,9.80
2018-09-04T11:06:13.584Z,9.83
2018-09-04T11:11:16.921Z,10.30
2018-09-04T12:02:22.539Z,13.17
2018-09-04T12:07:25.903Z,14.53
2018-09-04T12:12:29.345Z,16.10
2018-09-04T13:03:34.813Z,17.77
2018-09-04T13:08:38.152Z,16.70
2018-09-04T13:13:41.488Z,16.90
2018-09-04T14:04:47.206Z,16.20
2018-09-04T14:09:50.541Z,19.10
2018-09-04T14:14:53.885Z,17.47
2018-09-04T14:48:43.282Z,14.63
2018-09-04T14:53:46.615Z,13.80
2018-09-04T14:58:50.713Z,11.97
2018-09-04T15:32:39.382Z,9.93
2018-09-04T15:37:42.725Z,10.00
2018-09-04T15:42:46.111Z,9.10
2018-09-04T15:47:49.404Z,9.20
2018-09-04T15:52:52.739Z,9.80
2018-09-04T15:57:56.062Z,8.30
2018-09-04T16:02:59.398Z,8.03
2018-09-04T16:08:02.747Z,7.33
2018-09-04T16:13:06.087Z,9.03
2018-09-04T16:18:09.416Z,8.73
2018-09-04T16:23:12.754Z,8.60
2018-09-04T16:28:16.100Z,8.83
2018-09-04T16:33:19.428Z,7.93
2018-09-04T16:38:22.762Z,9.13
2018-09-04T16:43:26.086Z,8.30
2018-09-04T16:48:29.433Z,7.63
2018-09-04T16:53:33.551Z,8.10
2018-09-04T16:58:37.649Z,7.07
2018-09-04T17:03:41.071Z,7.73
2018-09-04T17:08:45.477Z,6.27
2018-09-04T17:13:48.939Z,9.23
2018-09-04T17:18:52.293Z,8.00
2018-09-04T17:23:55.635Z,8.50
2018-09-04T17:28:58.962Z,8.57
2018-09-04T17:34:02.308Z,9.17
2018-09-04T17:39:06.418Z,7.97
2018-09-04T17:44:20.443Z,7.30
2018-09-04T17:49:23.857Z,9.03
2018-09-04T17:54:27.186Z,9.33
2018-09-04T17:59:30.531Z,16.77
2018-09-04T18:04:33.876Z,10.70
2018-09-04T18:09:37.215Z,15.00
2018-09-04T18:14:45.562Z,9.57
2018-09-04T18:19:48.926Z,9.30
2018-09-04T18:30:07.156Z,8.40
2018-09-04T18:35:14.544Z,11.40
2018-09-04T18:40:19.272Z,11.20
2018-09-04T18:45:54.664Z,10.97
2018-09-04T18:51:00.382Z,9.23
2018-09-04T18:56:09.456Z,8.57
2018-09-04T19:01:14.335Z,8.60
2018-09-04T19:06:20.814Z,9.37
2018-09-04T19:11:24.155Z,8.87
2018-09-04T19:16:27.497Z,9.37
2018-09-04T19:21:31.699Z,7.87
2018-09-04T19:26:46.049Z,10.07
2018-09-04T19:31:52.258Z,10.33
2018-09-04T19:36:54.887Z,7.43
2018-09-04T19:41:58.420Z,8.07
2018-09-04T19:47:01.803Z,7.43
2018-09-04T19:52:05.909Z,7.87
2018-09-04T19:57:09.255Z,6.87
2018-09-04T20:02:12.627Z,6.23
2018-09-04T20:07:16.040Z,6.87
2018-09-04T20:12:19.359Z,6.77
2018-09-04T20:17:22.907Z,6.20
2018-09-04T20:22:26.322Z,6.97
2018-09-04T20:27:30.866Z,6.73
2018-09-04T20:32:34.263Z,7.03
2018-09-04T20:37:57.069Z,7.77
2018-09-04T20:43:02.898Z,7.23
2018-09-04T20:48:07.030Z,6.80
2018-09-04T20:53:10.375Z,7.37
2018-09-04T20:58:32.140Z,6.73
2018-09-04T21:03:53.294Z,5.77
2018-09-04T21:08:56.663Z,7.20
2018-09-04T21:14:00.803Z,9.63
2018-09-04T21:19:04.175Z,7.37
2018-09-04T21:24:07.654Z,7.50
2018-09-04T21:29:11.143Z,8.00
2018-09-04T21:34:15.270Z,7.87
2018-09-04T21:39:19.407Z,8.27
2018-09-04T21:44:41.076Z,7.50
2018-09-04T21:49:44.435Z,6.00
2018-09-04T21:54:47.816Z,7.87
2018-09-04T21:59:51.170Z,7.83
2018-09-04T22:04:55.319Z,6.03
2018-09-04T22:09:59.461Z,7.30
2018-09-04T22:15:02.969Z,8.17
2018-09-04T22:20:07.101Z,8.23
2018-09-04T22:25:11.246Z,6.47
2018-09-04T22:30:15.448Z,6.90
2018-09-04T22:35:19.192Z,6.47
2018-09-04T22:40:23.428Z,6.27
2018-09-04T22:45:27.008Z,7.37
2018-09-04T22:50:30.366Z,7.03
2018-09-04T22:55:39.871Z,7.43
2018-09-04T23:00:43.233Z,7.90
2018-09-04T23:05:47.359Z,7.97
2018-09-04T23:10:51.489Z,7.63
